sensor_id;sensor_type;location;lat;lon;timestamp;temperature;humidity
7317;DHT22;3699;51.462;6.696;2023-08-06T00:00:31;16.70;99.90
7317;DHT22;3699;51.462;6.696;2023-08-06T00:02:58;16.70;99.90
7317;DHT22;3699;51.462;6.696;2023-08-06T00:05:25;16.70;99.90
7317;DHT22;3699;51.462;6.696;2023-08-06T00:07:52;16.70;99.90
7317;DHT22;3699;51.462;6.696;2023-08-06T00:10:18;16.80;99.90
7317;DHT22;3699;51.462;6.696;2023-08-06T00:12:45;16.70;99.90
7317;DHT22;3699;51.462;6.696;2023-08-06T00:15:13;16.70;99.90
7317;DHT22;3699;51.462;6.696;2023-08-06T00:17:40;16.70;99.90
7317;DHT22;3699;51.462;6.696;2023-08-06T00:20:08;16.70;99.90
7317;DHT22;3699;51.462;6.696;2023-08-06T00:22:36;16.60;99.90
7317;DHT22;3699;51.462;6.696;2023-08-06T00:25:04;16.60;99.90
7317;DHT22;3699;51.462;6.696;2023-08-06T00:27:31;16.60;99.90
7317;DHT22;3699;51.462;6.696;2023-08-06T00:29:58;16.60;99.90
7317;DHT22;3699;51.462;6.696;2023-08-06T00:32:26;16.60;99.90
7317;DHT22;3699;51.462;6.696;2023-08-06T00:34:53;16.60;99.90
7317;DHT22;3699;51.462;6.696;2023-08-06T00:37:20;16.60;99.90
7317;DHT22;3699;51.462;6.696;2023-08-06T00:39:46;16.60;99.90
7317;DHT22;3699;51.462;6.696;2023-08-06T00:42:13;16.60;99.90
7317;DHT22;3699;51.462;6.696;2023-08-06T00:44:41;16.60;99.90
7317;DHT22;3699;51.462;6.696;2023-08-06T00:47:08;16.60;99.90
7317;DHT22;3699;51.462;6.696;2023-08-06T00:49:37;16.60;99.90
7317;DHT22;3699;51.462;6.696;2023-08-06T00:52:04;16.60;99.90
7317;DHT22;3699;51.462;6.696;2023-08-06T00:54:33;16.60;99.90
7317;DHT22;3699;51.462;6.696;2023-08-06T00:57:01;16.60;99.90
7317;DHT22;3699;51.462;6.696;2023-08-06T00:59:28;16.60;99.90
7317;DHT22;3699;51.462;6.696;2023-08-06T01:01:56;16.70;99.90
7317;DHT22;3699;51.462;6.696;2023-08-06T01:04:23;16.60;99.90
7317;DHT22;3699;51.462;6.696;2023-08-06T01:06:58;16.60;99.90
7317;DHT22;3699;51.462;6.696;2023-08-06T01:09:34;16.60;99.90
7317;DHT22;3699;51.462;6.696;2023-08-06T01:12:11;16.60;99.90
7317;DHT22;3699;51.462;6.696;2023-08-06T01:14:48;16.60;99.90
7317;DHT22;3699;51.462;6.696;2023-08-06T01:17:19;16.50;99.90
7317;DHT22;3699;51.462;6.696;2023-08-06T01:19:46;16.60;99.90
7317;DHT22;3699;51.462;6.696;2023-08-06T01:22:14;16.60;99.90
7317;DHT22;3699;51.462;6.696;2023-08-06T01:24:46;16.60;99.90
7317;DHT22;3699;51.462;6.696;2023-08-06T01:27:20;16.60;99.90
7317;DHT22;3699;51.462;6.696;2023-08-06T01:29:52;16.60;99.90
7317;DHT22;3699;51.462;6.696;2023-08-06T01:32:22;16.60;99.90
7317;DHT22;3699;51.462;6.696;2023-08-06T01:34:51;16.60;99.90
7317;DHT22;3699;51.462;6.696;2023-08-06T01:37:19;16.60;99.90
7317;DHT22;3699;51.462;6.696;2023-08-06T01:39:46;16.60;99.90
7317;DHT22;3699;51.462;6.696;2023-08-06T01:42:13;16.60;99.90
7317;DHT22;3699;51.462;6.696;2023-08-06T01:44:40;16.60;99.90
7317;DHT22;3699;51.462;6.696;2023-08-06T01:47:07;16.60;99.90
7317;DHT22;3699;51.462;6.696;2023-08-06T01:49:33;16.60;99.90
7317;DHT22;3699;51.462;6.696;2023-08-06T01:52:00;16.70;99.90
7317;DHT22;3699;51.462;6.696;2023-08-06T01:54:28;16.60;99.90
7317;DHT22;3699;51.462;6.696;2023-08-06T01:56:55;16.60;99.90
7317;DHT22;3699;51.462;6.696;2023-08-06T01:59:23;16.60;99.90
7317;DHT22;3699;51.462;6.696;2023-08-06T02:01:50;16.60;99.90
7317;DHT22;3699;51.462;6.696;2023-08-06T02:04:17;16.60;99.90
7317;DHT22;3699;51.462;6.696;2023-08-06T02:06:44;16.60;99.90
7317;DHT22;3699;51.462;6.696;2023-08-06T02:09:10;16.60;99.90
7317;DHT22;3699;51.462;6.696;2023-08-06T02:11:38;16.60;99.90
7317;DHT22;3699;51.462;6.696;2023-08-06T02:14:05;16.70;99.90
7317;DHT22;3699;51.462;6.696;2023-08-06T02:16:32;16.60;99.90
7317;DHT22;3699;51.462;6.696;2023-08-06T02:18:59;16.60;99.90
7317;DHT22;3699;51.462;6.696;2023-08-06T02:21:25;16.60;99.90
7317;DHT22;3699;51.462;6.696;2023-08-06T02:23:52;16.60;99.90
7317;DHT22;3699;51.462;6.696;2023-08-06T02:26:19;16.50;99.90
7317;DHT22;3699;51.462;6.696;2023-08-06T02:28:47;16.50;99.90
7317;DHT22;3699;51.462;6.696;2023-08-06T02:31:13;16.50;99.90
7317;DHT22;3699;51.462;6.696;2023-08-06T02:33:40;16.40;99.90
7317;DHT22;3699;51.462;6.696;2023-08-06T02:36:07;16.40;99.90
7317;DHT22;3699;51.462;6.696;2023-08-06T02:38:34;16.40;99.90
7317;DHT22;3699;51.462;6.696;2023-08-06T02:41:02;16.40;99.90
7317;DHT22;3699;51.462;6.696;2023-08-06T02:43:29;16.40;99.90
7317;DHT22;3699;51.462;6.696;2023-08-06T02:45:58;16.30;99.90
7317;DHT22;3699;51.462;6.696;2023-08-06T02:48:25;16.30;99.90
7317;DHT22;3699;51.462;6.696;2023-08-06T02:50:52;16.30;99.90
7317;DHT22;3699;51.462;6.696;2023-08-06T02:53:19;16.30;99.90
7317;DHT22;3699;51.462;6.696;2023-08-06T02:55:46;16.30;99.90
7317;DHT22;3699;51.462;6.696;2023-08-06T02:58:14;16.30;99.90
7317;DHT22;3699;51.462;6.696;2023-08-06T03:00:40;16.30;99.90
7317;DHT22;3699;51.462;6.696;2023-08-06T03:03:09;16.30;99.90
7317;DHT22;3699;51.462;6.696;2023-08-06T03:05:35;16.30;99.90
7317;DHT22;3699;51.462;6.696;2023-08-06T03:08:02;16.30;99.90
7317;DHT22;3699;51.462;6.696;2023-08-06T03:10:29;16.30;99.90
7317;DHT22;3699;51.462;6.696;2023-08-06T03:12:56;16.30;99.90
7317;DHT22;3699;51.462;6.696;2023-08-06T03:15:22;16.30;99.90
7317;DHT22;3699;51.462;6.696;2023-08-06T03:17:49;16.30;99.90
7317;DHT22;3699;51.462;6.696;2023-08-06T03:20:17;16.30;99.90
7317;DHT22;3699;51.462;6.696;2023-08-06T03:22:44;16.30;99.90
7317;DHT22;3699;51.462;6.696;2023-08-06T03:25:11;16.20;99.90
7317;DHT22;3699;51.462;6.696;2023-08-06T03:27:37;16.20;99.90
7317;DHT22;3699;51.462;6.696;2023-08-06T03:30:05;16.20;99.90
7317;DHT22;3699;51.462;6.696;2023-08-06T03:32:32;16.20;99.90
7317;DHT22;3699;51.462;6.696;2023-08-06T03:34:59;16.30;99.90
7317;DHT22;3699;51.462;6.696;2023-08-06T03:37:27;16.30;99.90
7317;DHT22;3699;51.462;6.696;2023-08-06T03:39:53;16.40;99.90
7317;DHT22;3699;51.462;6.696;2023-08-06T03:42:20;16.30;99.90
7317;DHT22;3699;51.462;6.696;2023-08-06T03:44:47;16.20;99.90
7317;DHT22;3699;51.462;6.696;2023-08-06T03:47:14;16.20;99.90
7317;DHT22;3699;51.462;6.696;2023-08-06T03:49:40;16.20;99.90
7317;DHT22;3699;51.462;6.696;2023-08-06T03:52:08;16.20;99.90
7317;DHT22;3699;51.462;6.696;2023-08-06T03:54:36;16.20;99.90
7317;DHT22;3699;51.462;6.696;2023-08-06T03:57:05;16.30;99.90
7317;DHT22;3699;51.462;6.696;2023-08-06T03:59:31;16.30;99.90
7317;DHT22;3699;51.462;6.696;2023-08-06T04:01:58;16.30;99.90
7317;DHT22;3699;51.462;6.696;2023-08-06T04:04:25;16.30;99.90
7317;DHT22;3699;51.462;6.696;2023-08-06T04:06:52;16.30;99.90
7317;DHT22;3699;51.462;6.696;2023-08-06T04:09:18;16.20;99.90
7317;DHT22;3699;51.462;6.696;2023-08-06T04:11:46;16.20;99.90
7317;DHT22;3699;51.462;6.696;2023-08-06T04:14:13;16.20;99.90
7317;DHT22;3699;51.462;6.696;2023-08-06T04:16:40;16.20;99.90
7317;DHT22;3699;51.462;6.696;2023-08-06T04:19:07;16.20;99.90
7317;DHT22;3699;51.462;6.696;2023-08-06T04:21:33;16.20;99.90
7317;DHT22;3699;51.462;6.696;2023-08-06T04:24:00;16.30;99.90
7317;DHT22;3699;51.462;6.696;2023-08-06T04:26:27;16.30;99.90
7317;DHT22;3699;51.462;6.696;2023-08-06T04:28:55;16.30;99.90
7317;DHT22;3699;51.462;6.696;2023-08-06T04:31:22;16.30;99.90
7317;DHT22;3699;51.462;6.696;2023-08-06T04:33:49;16.30;99.90
7317;DHT22;3699;51.462;6.696;2023-08-06T04:36:16;16.30;99.90
7317;DHT22;3699;51.462;6.696;2023-08-06T04:38:43;16.40;99.90
7317;DHT22;3699;51.462;6.696;2023-08-06T04:41:12;16.40;99.90
7317;DHT22;3699;51.462;6.696;2023-08-06T04:43:39;16.50;99.90
7317;DHT22;3699;51.462;6.696;2023-08-06T04:46:07;16.50;99.90
7317;DHT22;3699;51.462;6.696;2023-08-06T04:48:34;16.60;99.90
7317;DHT22;3699;51.462;6.696;2023-08-06T04:51:01;16.60;99.90
7317;DHT22;3699;51.462;6.696;2023-08-06T04:53:27;16.60;99.90
7317;DHT22;3699;51.462;6.696;2023-08-06T04:55:54;16.70;99.90
7317;DHT22;3699;51.462;6.696;2023-08-06T04:58:21;16.70;99.90
7317;DHT22;3699;51.462;6.696;2023-08-06T05:00:47;16.80;99.90
7317;DHT22;3699;51.462;6.696;2023-08-06T05:03:16;16.80;99.90
7317;DHT22;3699;51.462;6.696;2023-08-06T05:05:42;16.90;99.90
7317;DHT22;3699;51.462;6.696;2023-08-06T05:08:14;17.00;99.90
7317;DHT22;3699;51.462;6.696;2023-08-06T05:10:42;17.00;99.90
7317;DHT22;3699;51.462;6.696;2023-08-06T05:13:09;17.10;99.90
7317;DHT22;3699;51.462;6.696;2023-08-06T05:15:36;17.20;99.90
7317;DHT22;3699;51.462;6.696;2023-08-06T05:18:02;17.20;99.90
7317;DHT22;3699;51.462;6.696;2023-08-06T05:20:31;17.20;99.90
7317;DHT22;3699;51.462;6.696;2023-08-06T05:22:57;17.30;99.90
7317;DHT22;3699;51.462;6.696;2023-08-06T05:25:24;17.40;99.90
7317;DHT22;3699;51.462;6.696;2023-08-06T05:27:51;17.40;99.90
7317;DHT22;3699;51.462;6.696;2023-08-06T05:30:18;17.40;99.90
7317;DHT22;3699;51.462;6.696;2023-08-06T05:32:45;17.50;99.90
7317;DHT22;3699;51.462;6.696;2023-08-06T05:35:12;17.50;99.90
7317;DHT22;3699;51.462;6.696;2023-08-06T05:37:40;17.50;99.90
7317;DHT22;3699;51.462;6.696;2023-08-06T05:40:08;17.40;99.90
7317;DHT22;3699;51.462;6.696;2023-08-06T05:42:34;17.40;99.90
7317;DHT22;3699;51.462;6.696;2023-08-06T05:45:01;17.50;99.90
7317;DHT22;3699;51.462;6.696;2023-08-06T05:47:28;17.50;99.90
7317;DHT22;3699;51.462;6.696;2023-08-06T05:49:55;17.60;99.90
7317;DHT22;3699;51.462;6.696;2023-08-06T05:52:21;17.60;99.90
7317;DHT22;3699;51.462;6.696;2023-08-06T05:54:50;17.70;99.90
7317;DHT22;3699;51.462;6.696;2023-08-06T05:57:16;17.80;99.90
7317;DHT22;3699;51.462;6.696;2023-08-06T05:59:43;17.90;99.90
7317;DHT22;3699;51.462;6.696;2023-08-06T06:02:10;18.00;99.90
7317;DHT22;3699;51.462;6.696;2023-08-06T06:04:37;18.10;99.90
7317;DHT22;3699;51.462;6.696;2023-08-06T06:07:04;18.10;99.90
7317;DHT22;3699;51.462;6.696;2023-08-06T06:09:31;18.20;99.90
7317;DHT22;3699;51.462;6.696;2023-08-06T06:11:59;18.20;99.90
7317;DHT22;3699;51.462;6.696;2023-08-06T06:14:25;18.40;99.90
7317;DHT22;3699;51.462;6.696;2023-08-06T06:16:52;18.70;99.90
7317;DHT22;3699;51.462;6.696;2023-08-06T06:19:19;18.90;99.90
7317;DHT22;3699;51.462;6.696;2023-08-06T06:21:46;19.30;99.90
7317;DHT22;3699;51.462;6.696;2023-08-06T06:24:13;19.80;99.90
7317;DHT22;3699;51.462;6.696;2023-08-06T06:26:39;20.20;99.90
7317;DHT22;3699;51.462;6.696;2023-08-06T06:29:07;20.50;99.90
7317;DHT22;3699;51.462;6.696;2023-08-06T06:31:34;20.80;99.90
7317;DHT22;3699;51.462;6.696;2023-08-06T06:34:01;21.00;99.90
7317;DHT22;3699;51.462;6.696;2023-08-06T06:36:28;21.30;99.90
7317;DHT22;3699;51.462;6.696;2023-08-06T06:38:54;21.50;99.90
7317;DHT22;3699;51.462;6.696;2023-08-06T06:41:21;21.90;99.90
7317;DHT22;3699;51.462;6.696;2023-08-06T06:43:48;22.10;99.90
7317;DHT22;3699;51.462;6.696;2023-08-06T06:46:16;22.70;99.90
7317;DHT22;3699;51.462;6.696;2023-08-06T06:48:43;22.70;99.90
7317;DHT22;3699;51.462;6.696;2023-08-06T06:51:09;23.50;99.90
7317;DHT22;3699;51.462;6.696;2023-08-06T06:53:36;23.70;99.90
7317;DHT22;3699;51.462;6.696;2023-08-06T06:56:04;23.90;99.90
7317;DHT22;3699;51.462;6.696;2023-08-06T06:58:31;24.30;99.90
7317;DHT22;3699;51.462;6.696;2023-08-06T07:00:58;24.70;99.90
7317;DHT22;3699;51.462;6.696;2023-08-06T07:03:26;24.90;99.90
7317;DHT22;3699;51.462;6.696;2023-08-06T07:05:57;25.10;99.90
7317;DHT22;3699;51.462;6.696;2023-08-06T07:08:24;25.20;99.90
7317;DHT22;3699;51.462;6.696;2023-08-06T07:10:50;25.30;99.90
7317;DHT22;3699;51.462;6.696;2023-08-06T07:13:17;25.30;99.90
7317;DHT22;3699;51.462;6.696;2023-08-06T07:15:44;25.40;99.90
7317;DHT22;3699;51.462;6.696;2023-08-06T07:18:11;25.60;99.90
7317;DHT22;3699;51.462;6.696;2023-08-06T07:20:39;25.70;99.90
7317;DHT22;3699;51.462;6.696;2023-08-06T07:23:05;25.70;99.90
7317;DHT22;3699;51.462;6.696;2023-08-06T07:25:32;25.40;99.90
7317;DHT22;3699;51.462;6.696;2023-08-06T07:27:59;24.90;99.90
7317;DHT22;3699;51.462;6.696;2023-08-06T07:30:27;24.30;99.90
7317;DHT22;3699;51.462;6.696;2023-08-06T07:32:54;23.70;99.90
7317;DHT22;3699;51.462;6.696;2023-08-06T07:35:21;23.10;99.90
7317;DHT22;3699;51.462;6.696;2023-08-06T07:37:49;22.60;99.90
7317;DHT22;3699;51.462;6.696;2023-08-06T07:40:16;22.20;99.90
7317;DHT22;3699;51.462;6.696;2023-08-06T07:42:43;21.80;99.90
7317;DHT22;3699;51.462;6.696;2023-08-06T07:45:10;21.40;99.90
7317;DHT22;3699;51.462;6.696;2023-08-06T07:47:36;21.10;99.90
7317;DHT22;3699;51.462;6.696;2023-08-06T07:50:04;20.80;99.90
7317;DHT22;3699;51.462;6.696;2023-08-06T07:52:30;20.60;99.90
7317;DHT22;3699;51.462;6.696;2023-08-06T07:54:58;20.40;99.90
7317;DHT22;3699;51.462;6.696;2023-08-06T07:57:27;20.30;99.90
7317;DHT22;3699;51.462;6.696;2023-08-06T07:59:53;20.10;99.90
7317;DHT22;3699;51.462;6.696;2023-08-06T08:02:20;20.10;99.90
7317;DHT22;3699;51.462;6.696;2023-08-06T08:04:47;20.00;99.90
7317;DHT22;3699;51.462;6.696;2023-08-06T08:07:14;20.10;99.90
7317;DHT22;3699;51.462;6.696;2023-08-06T08:09:41;20.10;99.90
7317;DHT22;3699;51.462;6.696;2023-08-06T08:12:09;20.10;99.90
7317;DHT22;3699;51.462;6.696;2023-08-06T08:14:35;20.10;99.90
7317;DHT22;3699;51.462;6.696;2023-08-06T08:17:03;20.10;99.90
7317;DHT22;3699;51.462;6.696;2023-08-06T08:19:30;20.10;99.90
7317;DHT22;3699;51.462;6.696;2023-08-06T08:21:56;20.20;99.90
7317;DHT22;3699;51.462;6.696;2023-08-06T08:24:23;20.30;99.90
7317;DHT22;3699;51.462;6.696;2023-08-06T08:26:50;20.70;99.90
7317;DHT22;3699;51.462;6.696;2023-08-06T08:29:19;21.40;99.90
7317;DHT22;3699;51.462;6.696;2023-08-06T08:31:46;22.10;99.90
7317;DHT22;3699;51.462;6.696;2023-08-06T08:34:14;22.80;99.90
7317;DHT22;3699;51.462;6.696;2023-08-06T08:36:41;23.50;99.90
7317;DHT22;3699;51.462;6.696;2023-08-06T08:39:08;24.00;99.90
7317;DHT22;3699;51.462;6.696;2023-08-06T08:41:38;24.30;99.90
7317;DHT22;3699;51.462;6.696;2023-08-06T08:44:08;24.40;99.90
7317;DHT22;3699;51.462;6.696;2023-08-06T08:46:37;24.70;99.90
7317;DHT22;3699;51.462;6.696;2023-08-06T08:49:04;25.00;99.90
7317;DHT22;3699;51.462;6.696;2023-08-06T08:51:33;24.90;99.90
7317;DHT22;3699;51.462;6.696;2023-08-06T08:54:00;24.40;98.10
7317;DHT22;3699;51.462;6.696;2023-08-06T08:56:29;23.80;99.90
7317;DHT22;3699;51.462;6.696;2023-08-06T08:58:56;23.30;99.90
7317;DHT22;3699;51.462;6.696;2023-08-06T09:01:24;22.80;99.90
7317;DHT22;3699;51.462;6.696;2023-08-06T09:03:53;22.30;99.90
7317;DHT22;3699;51.462;6.696;2023-08-06T09:06:21;21.90;99.90
7317;DHT22;3699;51.462;6.696;2023-08-06T09:08:53;21.70;99.90
7317;DHT22;3699;51.462;6.696;2023-08-06T09:11:23;21.50;99.90
7317;DHT22;3699;51.462;6.696;2023-08-06T09:13:50;21.40;99.90
7317;DHT22;3699;51.462;6.696;2023-08-06T09:16:17;21.30;99.90
7317;DHT22;3699;51.462;6.696;2023-08-06T09:18:44;21.30;99.90
7317;DHT22;3699;51.462;6.696;2023-08-06T09:21:15;21.30;99.90
7317;DHT22;3699;51.462;6.696;2023-08-06T09:23:42;21.30;99.90
7317;DHT22;3699;51.462;6.696;2023-08-06T09:26:12;21.30;99.90
7317;DHT22;3699;51.462;6.696;2023-08-06T09:28:39;21.30;99.90
7317;DHT22;3699;51.462;6.696;2023-08-06T09:31:08;21.30;99.90
7317;DHT22;3699;51.462;6.696;2023-08-06T09:33:36;21.40;99.90
7317;DHT22;3699;51.462;6.696;2023-08-06T09:36:10;21.40;99.90
7317;DHT22;3699;51.462;6.696;2023-08-06T09:38:41;21.50;99.90
7317;DHT22;3699;51.462;6.696;2023-08-06T09:41:08;21.50;99.90
7317;DHT22;3699;51.462;6.696;2023-08-06T09:43:42;21.60;99.90
7317;DHT22;3699;51.462;6.696;2023-08-06T09:46:12;21.70;99.90
7317;DHT22;3699;51.462;6.696;2023-08-06T09:48:41;21.70;99.90
7317;DHT22;3699;51.462;6.696;2023-08-06T09:51:11;21.80;99.90
7317;DHT22;3699;51.462;6.696;2023-08-06T09:53:42;21.80;99.90
7317;DHT22;3699;51.462;6.696;2023-08-06T09:56:09;22.00;99.90
7317;DHT22;3699;51.462;6.696;2023-08-06T09:58:38;22.00;99.90
7317;DHT22;3699;51.462;6.696;2023-08-06T10:01:06;22.00;99.90
7317;DHT22;3699;51.462;6.696;2023-08-06T10:03:34;22.00;99.90
7317;DHT22;3699;51.462;6.696;2023-08-06T10:06:01;22.00;99.90
7317;DHT22;3699;51.462;6.696;2023-08-06T10:08:31;22.00;99.90
7317;DHT22;3699;51.462;6.696;2023-08-06T10:11:00;21.90;99.90
7317;DHT22;3699;51.462;6.696;2023-08-06T10:13:30;21.80;99.90
7317;DHT22;3699;51.462;6.696;2023-08-06T10:15:57;22.00;99.90
7317;DHT22;3699;51.462;6.696;2023-08-06T10:18:24;22.10;99.90
7317;DHT22;3699;51.462;6.696;2023-08-06T10:20:51;22.20;99.90
7317;DHT22;3699;51.462;6.696;2023-08-06T10:23:18;22.40;99.90
7317;DHT22;3699;51.462;6.696;2023-08-06T10:25:53;22.70;99.90
7317;DHT22;3699;51.462;6.696;2023-08-06T10:28:22;23.00;99.90
7317;DHT22;3699;51.462;6.696;2023-08-06T10:30:59;23.00;99.90
7317;DHT22;3699;51.462;6.696;2023-08-06T10:33:40;22.90;99.90
7317;DHT22;3699;51.462;6.696;2023-08-06T10:36:08;22.70;99.90
7317;DHT22;3699;51.462;6.696;2023-08-06T10:38:44;22.50;99.90
7317;DHT22;3699;51.462;6.696;2023-08-06T10:41:15;22.40;99.90
7317;DHT22;3699;51.462;6.696;2023-08-06T10:43:43;22.20;99.90
7317;DHT22;3699;51.462;6.696;2023-08-06T10:46:22;21.90;99.90
7317;DHT22;3699;51.462;6.696;2023-08-06T10:48:49;21.50;99.90
7317;DHT22;3699;51.462;6.696;2023-08-06T10:51:16;21.00;99.90
7317;DHT22;3699;51.462;6.696;2023-08-06T10:53:44;20.60;99.90
7317;DHT22;3699;51.462;6.696;2023-08-06T10:56:14;20.30;99.90
7317;DHT22;3699;51.462;6.696;2023-08-06T10:58:41;19.90;99.90
7317;DHT22;3699;51.462;6.696;2023-08-06T11:01:10;19.30;99.90
7317;DHT22;3699;51.462;6.696;2023-08-06T11:03:37;19.30;99.90
7317;DHT22;3699;51.462;6.696;2023-08-06T11:06:04;19.10;99.90
7317;DHT22;3699;51.462;6.696;2023-08-06T11:08:34;18.90;99.90
7317;DHT22;3699;51.462;6.696;2023-08-06T11:11:08;18.70;99.90
7317;DHT22;3699;51.462;6.696;2023-08-06T11:13:36;18.50;99.90
7317;DHT22;3699;51.462;6.696;2023-08-06T11:16:03;18.30;99.90
7317;DHT22;3699;51.462;6.696;2023-08-06T11:18:31;18.20;99.90
7317;DHT22;3699;51.462;6.696;2023-08-06T11:20:59;18.10;99.90
7317;DHT22;3699;51.462;6.696;2023-08-06T11:23:26;17.90;99.90
7317;DHT22;3699;51.462;6.696;2023-08-06T11:25:54;17.90;99.90
7317;DHT22;3699;51.462;6.696;2023-08-06T11:28:20;17.80;99.90
7317;DHT22;3699;51.462;6.696;2023-08-06T11:30:47;17.70;99.90
7317;DHT22;3699;51.462;6.696;2023-08-06T11:33:14;17.70;99.90
7317;DHT22;3699;51.462;6.696;2023-08-06T11:35:42;17.60;99.90
7317;DHT22;3699;51.462;6.696;2023-08-06T11:38:09;17.60;99.90
7317;DHT22;3699;51.462;6.696;2023-08-06T11:40:36;17.50;99.90
7317;DHT22;3699;51.462;6.696;2023-08-06T11:43:03;17.40;99.90
7317;DHT22;3699;51.462;6.696;2023-08-06T11:45:30;17.40;99.90
7317;DHT22;3699;51.462;6.696;2023-08-06T11:47:56;17.40;99.90
7317;DHT22;3699;51.462;6.696;2023-08-06T11:50:24;17.50;99.90
7317;DHT22;3699;51.462;6.696;2023-08-06T11:52:56;17.50;99.90
7317;DHT22;3699;51.462;6.696;2023-08-06T11:55:23;17.60;99.90
7317;DHT22;3699;51.462;6.696;2023-08-06T11:57:50;17.60;99.90
7317;DHT22;3699;51.462;6.696;2023-08-06T12:00:18;17.70;99.90
7317;DHT22;3699;51.462;6.696;2023-08-06T12:02:48;17.70;99.90
7317;DHT22;3699;51.462;6.696;2023-08-06T12:05:17;17.80;99.90
7317;DHT22;3699;51.462;6.696;2023-08-06T12:07:47;17.80;99.90
7317;DHT22;3699;51.462;6.696;2023-08-06T12:10:16;17.90;99.90
7317;DHT22;3699;51.462;6.696;2023-08-06T12:12:45;18.00;99.90
7317;DHT22;3699;51.462;6.696;2023-08-06T12:15:12;18.10;99.90
7317;DHT22;3699;51.462;6.696;2023-08-06T12:17:39;18.10;99.90
7317;DHT22;3699;51.462;6.696;2023-08-06T12:20:06;18.20;99.90
7317;DHT22;3699;51.462;6.696;2023-08-06T12:22:34;18.20;99.90
7317;DHT22;3699;51.462;6.696;2023-08-06T12:25:01;18.40;99.90
7317;DHT22;3699;51.462;6.696;2023-08-06T12:27:30;18.30;99.90
7317;DHT22;3699;51.462;6.696;2023-08-06T12:29:56;18.50;99.90
7317;DHT22;3699;51.462;6.696;2023-08-06T12:32:23;18.60;99.90
7317;DHT22;3699;51.462;6.696;2023-08-06T12:34:50;18.70;99.90
7317;DHT22;3699;51.462;6.696;2023-08-06T12:37:17;18.80;99.90
7317;DHT22;3699;51.462;6.696;2023-08-06T12:39:43;18.80;99.90
7317;DHT22;3699;51.462;6.696;2023-08-06T12:42:10;18.80;99.90
7317;DHT22;3699;51.462;6.696;2023-08-06T12:44:38;18.70;99.90
7317;DHT22;3699;51.462;6.696;2023-08-06T12:47:06;18.70;99.90
7317;DHT22;3699;51.462;6.696;2023-08-06T12:49:33;18.70;99.90
7317;DHT22;3699;51.462;6.696;2023-08-06T12:51:59;18.70;99.90
7317;DHT22;3699;51.462;6.696;2023-08-06T12:54:27;18.60;99.90
7317;DHT22;3699;51.462;6.696;2023-08-06T12:56:53;18.60;99.90
7317;DHT22;3699;51.462;6.696;2023-08-06T12:59:20;18.50;99.90
7317;DHT22;3699;51.462;6.696;2023-08-06T13:01:48;18.40;99.90
7317;DHT22;3699;51.462;6.696;2023-08-06T13:04:15;18.30;99.90
7317;DHT22;3699;51.462;6.696;2023-08-06T13:06:42;18.20;99.90
7317;DHT22;3699;51.462;6.696;2023-08-06T13:09:09;18.10;99.90
7317;DHT22;3699;51.462;6.696;2023-08-06T13:11:36;18.10;99.90
7317;DHT22;3699;51.462;6.696;2023-08-06T13:14:05;18.00;99.90
7317;DHT22;3699;51.462;6.696;2023-08-06T13:16:32;18.10;99.90
7317;DHT22;3699;51.462;6.696;2023-08-06T13:19:00;18.10;99.90
7317;DHT22;3699;51.462;6.696;2023-08-06T13:21:32;18.10;99.90
7317;DHT22;3699;51.462;6.696;2023-08-06T13:24:00;18.10;99.90
7317;DHT22;3699;51.462;6.696;2023-08-06T13:26:30;18.20;99.90
7317;DHT22;3699;51.462;6.696;2023-08-06T13:28:57;18.30;99.90
7317;DHT22;3699;51.462;6.696;2023-08-06T13:31:24;18.50;99.90
7317;DHT22;3699;51.462;6.696;2023-08-06T13:33:51;18.60;99.90
7317;DHT22;3699;51.462;6.696;2023-08-06T13:36:22;18.80;99.90
7317;DHT22;3699;51.462;6.696;2023-08-06T13:38:49;19.00;99.90
7317;DHT22;3699;51.462;6.696;2023-08-06T13:41:15;19.10;99.90
7317;DHT22;3699;51.462;6.696;2023-08-06T13:43:43;19.20;99.90
7317;DHT22;3699;51.462;6.696;2023-08-06T13:46:10;19.30;99.90
7317;DHT22;3699;51.462;6.696;2023-08-06T13:48:40;19.30;99.90
7317;DHT22;3699;51.462;6.696;2023-08-06T13:51:07;19.30;99.90
7317;DHT22;3699;51.462;6.696;2023-08-06T13:53:36;19.20;99.90
7317;DHT22;3699;51.462;6.696;2023-08-06T13:56:03;19.30;99.90
7317;DHT22;3699;51.462;6.696;2023-08-06T13:58:30;19.30;99.90
7317;DHT22;3699;51.462;6.696;2023-08-06T14:00:57;19.20;99.90
7317;DHT22;3699;51.462;6.696;2023-08-06T14:03:24;19.40;99.90
7317;DHT22;3699;51.462;6.696;2023-08-06T14:05:50;19.50;99.90
7317;DHT22;3699;51.462;6.696;2023-08-06T14:08:18;19.60;99.90
7317;DHT22;3699;51.462;6.696;2023-08-06T14:10:46;19.70;99.90
7317;DHT22;3699;51.462;6.696;2023-08-06T14:13:13;19.80;99.90
7317;DHT22;3699;51.462;6.696;2023-08-06T14:15:39;19.90;99.90
7317;DHT22;3699;51.462;6.696;2023-08-06T14:18:06;20.00;99.90
7317;DHT22;3699;51.462;6.696;2023-08-06T14:20:34;20.00;99.90
7317;DHT22;3699;51.462;6.696;2023-08-06T14:23:01;19.80;99.90
7317;DHT22;3699;51.462;6.696;2023-08-06T14:25:28;19.80;99.90
7317;DHT22;3699;51.462;6.696;2023-08-06T14:27:56;19.70;99.90
7317;DHT22;3699;51.462;6.696;2023-08-06T14:30:23;19.70;99.90
7317;DHT22;3699;51.462;6.696;2023-08-06T14:32:50;19.70;99.90
7317;DHT22;3699;51.462;6.696;2023-08-06T14:35:17;19.70;99.90
7317;DHT22;3699;51.462;6.696;2023-08-06T14:37:43;19.70;99.90
7317;DHT22;3699;51.462;6.696;2023-08-06T14:40:11;19.70;99.90
7317;DHT22;3699;51.462;6.696;2023-08-06T14:42:38;19.70;99.90
7317;DHT22;3699;51.462;6.696;2023-08-06T14:45:07;19.80;99.90
7317;DHT22;3699;51.462;6.696;2023-08-06T14:47:34;19.90;99.90
7317;DHT22;3699;51.462;6.696;2023-08-06T14:50:01;20.00;99.90
7317;DHT22;3699;51.462;6.696;2023-08-06T14:52:27;20.10;99.90
7317;DHT22;3699;51.462;6.696;2023-08-06T14:54:55;20.10;99.90
7317;DHT22;3699;51.462;6.696;2023-08-06T14:57:22;20.20;99.90
7317;DHT22;3699;51.462;6.696;2023-08-06T14:59:53;20.40;99.90
7317;DHT22;3699;51.462;6.696;2023-08-06T15:02:21;20.50;99.90
7317;DHT22;3699;51.462;6.696;2023-08-06T15:04:48;20.60;99.90
7317;DHT22;3699;51.462;6.696;2023-08-06T15:07:15;20.60;99.90
7317;DHT22;3699;51.462;6.696;2023-08-06T15:09:42;20.60;99.90
7317;DHT22;3699;51.462;6.696;2023-08-06T15:12:10;20.50;99.90
7317;DHT22;3699;51.462;6.696;2023-08-06T15:14:37;20.50;99.90
7317;DHT22;3699;51.462;6.696;2023-08-06T15:17:04;20.40;99.90
7317;DHT22;3699;51.462;6.696;2023-08-06T15:19:32;20.30;99.90
7317;DHT22;3699;51.462;6.696;2023-08-06T15:21:59;20.20;99.90
7317;DHT22;3699;51.462;6.696;2023-08-06T15:24:25;20.10;99.90
7317;DHT22;3699;51.462;6.696;2023-08-06T15:26:51;20.00;99.90
7317;DHT22;3699;51.462;6.696;2023-08-06T15:29:18;20.00;99.90
7317;DHT22;3699;51.462;6.696;2023-08-06T15:31:44;20.00;99.90
7317;DHT22;3699;51.462;6.696;2023-08-06T15:34:11;20.00;99.90
7317;DHT22;3699;51.462;6.696;2023-08-06T15:36:39;20.00;99.90
7317;DHT22;3699;51.462;6.696;2023-08-06T15:39:06;20.00;99.90
7317;DHT22;3699;51.462;6.696;2023-08-06T15:41:33;20.00;99.90
7317;DHT22;3699;51.462;6.696;2023-08-06T15:43:59;20.10;99.90
7317;DHT22;3699;51.462;6.696;2023-08-06T15:46:26;20.00;99.90
7317;DHT22;3699;51.462;6.696;2023-08-06T15:48:53;19.90;99.90
7317;DHT22;3699;51.462;6.696;2023-08-06T15:51:19;19.80;99.90
7317;DHT22;3699;51.462;6.696;2023-08-06T15:53:48;19.70;99.90
7317;DHT22;3699;51.462;6.696;2023-08-06T15:56:14;19.50;99.90
7317;DHT22;3699;51.462;6.696;2023-08-06T15:58:41;19.40;99.90
7317;DHT22;3699;51.462;6.696;2023-08-06T16:01:08;19.30;99.90
7317;DHT22;3699;51.462;6.696;2023-08-06T16:03:35;19.20;99.90